Time;durP1;ratioP1;P1;durP2;ratioP2;P2;SDS_P1;SDS_P2;PMS_P1;PMS_P2;Temp;Humidity;BMP_temperature;BMP_pressure;BME280_temperature;BME280_humidity;BME280_pressure;Samples;Min_cycle;Max_cycle;Signal;HPM_P1;HPM_P2
2022/10/13 00:01:27;;;;;;;20.92;12.60;;;;;;;;;;5062234;28;20204;-67
2022/10/13 00:03:54;;;;;;;17.05;13.38;;;;;;;;;;5061988;28;20537;-67
2022/10/13 00:06:23;;;;;;;18.10;12.95;;;;;;;;;;5061813;28;20272;-67
2022/10/13 00:08:49;;;;;;;21.35;13.93;;;;;;;;;;5061545;28;20245;-67
2022/10/13 00:11:17;;;;;;;23.77;13.30;;;;;;;;;;5062137;28;20211;-67
2022/10/13 00:13:43;;;;;;;21.17;13.15;;;;;;;;;;5062121;28;20500;-67
2022/10/13 00:16:11;;;;;;;22.60;12.55;;;;;;;;;;5062086;28;20504;-67
2022/10/13 00:18:37;;;;;;;18.05;11.85;;;;;;;;;;5061766;28;20197;-67
2022/10/13 00:21:06;;;;;;;19.25;12.65;;;;;;;;;;5061747;28;20204;-67
2022/10/13 00:23:34;;;;;;;20.33;12.70;;;;;;;;;;5062089;28;20208;-67
2022/10/13 00:26:02;;;;;;;20.58;13.30;;;;;;;;;;5062005;28;20197;-67
2022/10/13 00:28:28;;;;;;;20.38;13.90;;;;;;;;;;5061686;28;20272;-69
2022/10/13 00:30:55;;;;;;;23.63;13.18;;;;;;;;;;5062073;28;20189;-67
2022/10/13 00:33:22;;;;;;;17.77;12.73;;;;;;;;;;5061783;28;20500;-67
2022/10/13 00:35:48;;;;;;;19.08;12.85;;;;;;;;;;5061825;28;20197;-67
2022/10/13 00:38:15;;;;;;;21.90;13.82;;;;;;;;;;5061761;28;20381;-67
2022/10/13 00:40:47;;;;;;;25.42;13.68;;;;;;;;;;5061683;28;20496;-67
2022/10/13 00:43:16;;;;;;;20.40;13.85;;;;;;;;;;5061673;28;20227;-67
2022/10/13 00:45:42;;;;;;;31.42;14.63;;;;;;;;;;5061538;28;20197;-67
2022/10/13 00:48:08;;;;;;;24.30;14.50;;;;;;;;;;5061649;28;20518;-67
2022/10/13 00:50:37;;;;;;;28.55;14.90;;;;;;;;;;5061590;28;20221;-67
2022/10/13 00:53:04;;;;;;;26.42;14.65;;;;;;;;;;5061721;28;20711;-67
2022/10/13 00:55:31;;;;;;;30.67;14.95;;;;;;;;;;5061514;28;20220;-67
2022/10/13 00:58:00;;;;;;;22.52;14.98;;;;;;;;;;5064535;28;20525;-67
2022/10/13 01:00:28;;;;;;;21.15;14.15;;;;;;;;;;5065366;28;20216;-67
2022/10/13 01:02:55;;;;;;;22.35;14.50;;;;;;;;;;5065705;28;20249;-67
2022/10/13 01:05:21;;;;;;;17.75;13.82;;;;;;;;;;5065610;28;20201;-67
2022/10/13 01:07:48;;;;;;;24.38;14.50;;;;;;;;;;5065017;28;20214;-67
2022/10/13 01:10:23;;;;;;;20.40;13.48;;;;;;;;;;5065346;28;20252;-67
2022/10/13 01:12:52;;;;;;;24.35;14.80;;;;;;;;;;5065271;28;20263;-67
2022/10/13 01:15:26;;;;;;;25.65;13.88;;;;;;;;;;5065142;28;20197;-67
2022/10/13 01:17:58;;;;;;;26.45;14.20;;;;;;;;;;5065209;28;20204;-67
2022/10/13 01:20:43;;;;;;;21.60;14.60;;;;;;;;;;5064580;28;20201;-67
2022/10/13 01:23:15;;;;;;;21.17;14.32;;;;;;;;;;5065170;28;20200;-67
2022/10/13 01:25:49;;;;;;;19.00;14.15;;;;;;;;;;5065163;28;20197;-67
2022/10/13 01:28:29;;;;;;;25.33;14.63;;;;;;;;;;5064966;28;20231;-67
2022/10/13 01:31:00;;;;;;;20.83;13.43;;;;;;;;;;5064951;28;20554;-67
2022/10/13 01:33:30;;;;;;;23.42;14.82;;;;;;;;;;5064713;28;20236;-67
2022/10/13 01:36:03;;;;;;;23.33;14.85;;;;;;;;;;5064891;28;20488;-67
2022/10/13 01:38:33;;;;;;;23.45;15.55;;;;;;;;;;5064851;28;20391;-67
2022/10/13 01:41:01;;;;;;;23.95;15.00;;;;;;;;;;5064793;28;20194;-67
2022/10/13 01:43:30;;;;;;;28.13;16.10;;;;;;;;;;5064842;28;20225;-67
2022/10/13 01:46:01;;;;;;;25.00;16.83;;;;;;;;;;5064606;28;20205;-67
2022/10/13 01:48:28;;;;;;;25.77;17.15;;;;;;;;;;5064331;28;20264;-67
2022/10/13 01:50:55;;;;;;;26.40;18.10;;;;;;;;;;5064653;28;20221;-67
2022/10/13 01:53:22;;;;;;;26.48;17.75;;;;;;;;;;5064721;28;20460;-67
2022/10/13 01:55:49;;;;;;;28.58;17.83;;;;;;;;;;5064490;28;20197;-67
2022/10/13 01:58:16;;;;;;;27.98;16.90;;;;;;;;;;5064092;28;20217;-67
2022/10/13 02:00:45;;;;;;;28.85;18.27;;;;;;;;;;5064578;28;20527;-67
2022/10/13 02:03:17;;;;;;;30.73;17.60;;;;;;;;;;5064318;28;20198;-67
2022/10/13 02:05:48;;;;;;;31.60;17.73;;;;;;;;;;5064439;28;20496;-67
2022/10/13 02:08:18;;;;;;;26.98;18.83;;;;;;;;;;5063841;28;20204;-67
2022/10/13 02:10:47;;;;;;;35.38;20.60;;;;;;;;;;5064092;28;20225;-67
2022/10/13 02:13:15;;;;;;;35.13;20.75;;;;;;;;;;5064650;28;20201;-67
2022/10/13 02:15:43;;;;;;;35.40;22.27;;;;;;;;;;5064381;28;20472;-67
2022/10/13 02:18:11;;;;;;;28.75;21.38;;;;;;;;;;5064059;28;20492;-67
2022/10/13 02:20:40;;;;;;;32.90;20.98;;;;;;;;;;5064076;28;20254;-67
2022/10/13 02:23:09;;;;;;;36.83;21.33;;;;;;;;;;5064008;28;20197;-67
2022/10/13 02:25:35;;;;;;;32.72;21.52;;;;;;;;;;5063955;28;20197;-67
2022/10/13 02:28:02;;;;;;;26.15;18.80;;;;;;;;;;5063858;28;20284;-67
2022/10/13 02:30:29;;;;;;;35.10;20.45;;;;;;;;;;5064126;28;20225;-67
2022/10/13 02:32:56;;;;;;;34.20;20.30;;;;;;;;;;5063890;28;20395;-67
2022/10/13 02:35:22;;;;;;;29.92;20.23;;;;;;;;;;5063872;28;20460;-67
2022/10/13 02:37:50;;;;;;;44.63;21.02;;;;;;;;;;5063459;28;20499;-67
2022/10/13 02:40:16;;;;;;;27.17;19.35;;;;;;;;;;5063849;28;20197;-67
2022/10/13 02:42:43;;;;;;;30.88;21.85;;;;;;;;;;5063836;28;20225;-67
2022/10/13 02:45:10;;;;;;;31.92;21.08;;;;;;;;;;5063579;28;20213;-67
2022/10/13 02:47:36;;;;;;;34.72;21.95;;;;;;;;;;5063288;28;20201;-67
2022/10/13 02:50:03;;;;;;;32.75;21.10;;;;;;;;;;5063491;28;20217;-67
2022/10/13 02:52:29;;;;;;;29.35;20.60;;;;;;;;;;5063410;28;20410;-67
2022/10/13 02:54:57;;;;;;;30.58;20.77;;;;;;;;;;5063686;28;20203;-67
2022/10/13 02:57:23;;;;;;;35.20;20.98;;;;;;;;;;5063269;28;20225;-67
2022/10/13 02:59:49;;;;;;;40.28;20.90;;;;;;;;;;5063514;28;20508;-67
2022/10/13 03:02:16;;;;;;;28.70;19.08;;;;;;;;;;5063322;28;20392;-67
2022/10/13 03:04:42;;;;;;;31.25;19.33;;;;;;;;;;5063056;28;20519;-67
2022/10/13 03:07:08;;;;;;;31.30;18.30;;;;;;;;;;5062986;28;20474;-67
2022/10/13 03:09:35;;;;;;;29.95;18.10;;;;;;;;;;5063147;28;20536;-67
2022/10/13 03:12:02;;;;;;;26.63;17.40;;;;;;;;;;5063093;28;20197;-67
2022/10/13 03:14:28;;;;;;;28.55;17.52;;;;;;;;;;5062979;28;20283;-67
2022/10/13 03:16:55;;;;;;;26.17;17.42;;;;;;;;;;5062997;28;20197;-67
2022/10/13 03:19:21;;;;;;;21.35;14.82;;;;;;;;;;5062097;28;20204;-67
2022/10/13 03:21:47;;;;;;;30.25;16.90;;;;;;;;;;5062910;28;20197;-67
2022/10/13 03:24:14;;;;;;;24.17;16.10;;;;;;;;;;5063013;28;20203;-68
2022/10/13 03:26:40;;;;;;;22.77;15.88;;;;;;;;;;5062821;28;20220;-67
2022/10/13 03:29:08;;;;;;;26.83;16.42;;;;;;;;;;5062610;28;20219;-67
2022/10/13 03:31:34;;;;;;;25.55;16.63;;;;;;;;;;5062528;28;20223;-67
2022/10/13 03:34:00;;;;;;;33.42;18.52;;;;;;;;;;5062611;28;20240;-67
2022/10/13 03:36:26;;;;;;;26.35;17.70;;;;;;;;;;5062549;28;20205;-67
2022/10/13 03:38:53;;;;;;;22.08;15.13;;;;;;;;;;5062536;28;20233;-67
2022/10/13 03:41:19;;;;;;;20.80;14.98;;;;;;;;;;5062953;28;20217;-67
2022/10/13 03:43:46;;;;;;;23.15;16.08;;;;;;;;;;5062944;28;20203;-67
2022/10/13 03:46:14;;;;;;;26.58;14.68;;;;;;;;;;5062464;28;20197;-67
2022/10/13 03:48:41;;;;;;;24.83;14.75;;;;;;;;;;5062121;28;20209;-67
2022/10/13 03:51:07;;;;;;;23.98;15.20;;;;;;;;;;5062296;28;20232;-67
2022/10/13 03:53:34;;;;;;;33.67;16.23;;;;;;;;;;5062429;28;20205;-67
2022/10/13 03:56:00;;;;;;;24.65;15.73;;;;;;;;;;5062372;28;20211;-67
2022/10/13 03:58:28;;;;;;;25.83;17.02;;;;;;;;;;5062071;28;20408;-68
2022/10/13 04:00:54;;;;;;;25.50;16.92;;;;;;;;;;5062214;28;20194;-67
2022/10/13 04:03:22;;;;;;;24.50;16.70;;;;;;;;;;5062006;28;20197;-67
2022/10/13 04:05:48;;;;;;;25.75;17.13;;;;;;;;;;5062285;28;20198;-67
2022/10/13 04:08:14;;;;;;;24.95;16.50;;;;;;;;;;5061805;28;20208;-67
2022/10/13 04:10:41;;;;;;;23.40;15.10;;;;;;;;;;5062040;28;20240;-67
2022/10/13 04:13:07;;;;;;;24.95;15.15;;;;;;;;;;5062014;28;20383;-67
2022/10/13 04:15:36;;;;;;;29.23;15.95;;;;;;;;;;5062281;28;20212;-67
2022/10/13 04:18:02;;;;;;;25.05;16.27;;;;;;;;;;5061679;28;20208;-67
2022/10/13 04:20:30;;;;;;;23.70;16.55;;;;;;;;;;5062307;28;20193;-68
2022/10/13 04:22:56;;;;;;;28.60;15.45;;;;;;;;;;5061775;28;20197;-68
2022/10/13 04:25:23;;;;;;;24.52;14.98;;;;;;;;;;5061928;28;20408;-68
2022/10/13 04:27:49;;;;;;;25.98;15.70;;;;;;;;;;5061995;28;20219;-68
2022/10/13 04:30:16;;;;;;;20.48;14.23;;;;;;;;;;5061324;28;20213;-67
2022/10/13 04:32:42;;;;;;;23.50;14.65;;;;;;;;;;5061106;28;20612;-67
2022/10/13 04:35:08;;;;;;;26.85;15.02;;;;;;;;;;5061941;28;20203;-67
2022/10/13 04:37:36;;;;;;;28.88;15.63;;;;;;;;;;5061546;28;20263;-67
2022/10/13 04:40:03;;;;;;;21.52;13.85;;;;;;;;;;5061678;28;20205;-67
2022/10/13 04:42:29;;;;;;;21.17;14.80;;;;;;;;;;5061721;28;20492;-67
2022/10/13 04:44:55;;;;;;;22.25;15.25;;;;;;;;;;5061496;28;20197;-67
2022/10/13 04:47:21;;;;;;;29.15;15.07;;;;;;;;;;5061401;28;20197;-67
2022/10/13 04:49:48;;;;;;;20.80;13.82;;;;;;;;;;5061695;28;20512;-67
2022/10/13 04:52:14;;;;;;;20.20;14.23;;;;;;;;;;5061686;28;20205;-67
2022/10/13 04:54:42;;;;;;;21.67;13.63;;;;;;;;;;5061580;28;20197;-67
2022/10/13 04:57:08;;;;;;;20.17;13.13;;;;;;;;;;5061357;28;20288;-67
2022/10/13 04:59:35;;;;;;;16.45;13.10;;;;;;;;;;5061131;28;20197;-67
2022/10/13 05:02:02;;;;;;;20.98;13.60;;;;;;;;;;5061587;28;20193;-70
2022/10/13 05:04:28;;;;;;;16.00;12.75;;;;;;;;;;5061621;28;20228;-67
2022/10/13 05:06:54;;;;;;;21.70;14.10;;;;;;;;;;5061331;28;20219;-67
2022/10/13 05:09:21;;;;;;;21.02;13.32;;;;;;;;;;5061291;28;20279;-67
2022/10/13 05:11:49;;;;;;;17.52;12.63;;;;;;;;;;5061360;28;20267;-67
2022/10/13 05:14:15;;;;;;;17.70;13.38;;;;;;;;;;5061257;28;20201;-67
2022/10/13 05:16:41;;;;;;;19.00;13.30;;;;;;;;;;5061547;28;20197;-67
2022/10/13 05:19:08;;;;;;;23.38;14.43;;;;;;;;;;5061303;28;20554;-70
2022/10/13 05:21:34;;;;;;;18.10;14.30;;;;;;;;;;5061327;28;20193;-69
2022/10/13 05:24:01;;;;;;;24.27;14.85;;;;;;;;;;5061325;28;20198;-69
2022/10/13 05:26:30;;;;;;;20.52;13.48;;;;;;;;;;5061690;28;20496;-69
2022/10/13 05:28:58;;;;;;;21.88;13.85;;;;;;;;;;5061510;28;20575;-69
2022/10/13 05:31:26;;;;;;;17.25;13.85;;;;;;;;;;5061158;28;20235;-69
2022/10/13 05:33:52;;;;;;;20.38;13.30;;;;;;;;;;5061286;28;20223;-69
2022/10/13 05:36:20;;;;;;;18.35;13.30;;;;;;;;;;5061194;28;20197;-69
2022/10/13 05:38:49;;;;;;;18.58;13.77;;;;;;;;;;5060702;28;20205;-70
2022/10/13 05:41:15;;;;;;;18.10;13.35;;;;;;;;;;5060782;28;20207;-69
2022/10/13 05:43:42;;;;;;;18.60;13.43;;;;;;;;;;5063541;28;20201;-69
2022/10/13 05:46:09;;;;;;;21.45;13.80;;;;;;;;;;5064539;28;20204;-69
2022/10/13 05:48:36;;;;;;;21.33;13.52;;;;;;;;;;5064596;28;20283;-69
2022/10/13 05:51:04;;;;;;;21.92;13.00;;;;;;;;;;5064640;28;20213;-69
2022/10/13 05:53:33;;;;;;;21.65;13.68;;;;;;;;;;5064615;28;20492;-69
2022/10/13 05:56:05;;;;;;;21.50;13.35;;;;;;;;;;5064468;28;20215;-69
2022/10/13 05:58:31;;;;;;;21.52;14.00;;;;;;;;;;5064182;28;20284;-69
2022/10/13 06:00:58;;;;;;;20.60;13.93;;;;;;;;;;5064330;28;20203;-70
2022/10/13 06:03:27;;;;;;;21.15;14.63;;;;;;;;;;5064449;28;20268;-69
2022/10/13 06:05:54;;;;;;;19.98;14.05;;;;;;;;;;5064360;28;20205;-69
2022/10/13 06:08:20;;;;;;;25.67;15.02;;;;;;;;;;5063734;28;20211;-69
2022/10/13 06:10:46;;;;;;;25.02;14.82;;;;;;;;;;5064090;28;20220;-70
2022/10/13 06:13:12;;;;;;;20.50;13.73;;;;;;;;;;5064249;28;20200;-70
2022/10/13 06:15:39;;;;;;;28.55;14.57;;;;;;;;;;5064119;28;20271;-69
2022/10/13 06:18:07;;;;;;;17.45;12.98;;;;;;;;;;5063817;28;20228;-70
2022/10/13 06:20:35;;;;;;;22.15;14.65;;;;;;;;;;5064069;28;20199;-70
2022/10/13 06:23:01;;;;;;;23.70;14.93;;;;;;;;;;5063773;28;20504;-70
2022/10/13 06:25:28;;;;;;;18.42;14.02;;;;;;;;;;5064086;28;20197;-70
2022/10/13 06:27:54;;;;;;;23.77;15.13;;;;;;;;;;5063895;28;20204;-70
2022/10/13 06:30:20;;;;;;;19.55;14.40;;;;;;;;;;5064102;28;20232;-70
2022/10/13 06:32:47;;;;;;;21.17;15.35;;;;;;;;;;5063844;28;20197;-70
2022/10/13 06:35:13;;;;;;;25.90;14.95;;;;;;;;;;5048234;28;20206;-57
2022/10/13 06:37:41;;;;;;;18.65;14.98;;;;;;;;;;5049695;28;20280;-57
2022/10/13 06:40:07;;;;;;;23.92;15.07;;;;;;;;;;5055901;28;20457;-58
2022/10/13 06:42:34;;;;;;;25.90;16.70;;;;;;;;;;5057519;28;20205;-58
2022/10/13 06:45:00;;;;;;;34.55;21.05;;;;;;;;;;5057958;28;20559;-58
2022/10/13 06:47:26;;;;;;;37.28;23.10;;;;;;;;;;5057567;28;20220;-57
2022/10/13 06:49:53;;;;;;;45.42;21.88;;;;;;;;;;5057448;28;20224;-55
2022/10/13 06:52:19;;;;;;;35.00;21.20;;;;;;;;;;5057407;28;20228;-57
2022/10/13 06:54:47;;;;;;;37.85;23.83;;;;;;;;;;5053821;28;20402;-58
2022/10/13 06:57:13;;;;;;;38.53;23.50;;;;;;;;;;5054085;28;20232;-57
2022/10/13 06:59:39;;;;;;;37.78;21.85;;;;;;;;;;5054108;28;20488;-57
2022/10/13 07:02:06;;;;;;;39.20;24.35;;;;;;;;;;5053118;28;20205;-56
2022/10/13 07:04:32;;;;;;;37.83;23.40;;;;;;;;;;5051808;28;20223;-58
2022/10/13 07:06:58;;;;;;;38.20;21.90;;;;;;;;;;5055113;28;20316;-58
2022/10/13 07:09:25;;;;;;;36.20;23.58;;;;;;;;;;5055467;28;20223;-58
2022/10/13 07:11:52;;;;;;;31.00;22.20;;;;;;;;;;5056408;28;20263;-58
2022/10/13 07:14:19;;;;;;;46.95;26.20;;;;;;;;;;5056213;28;20418;-58
2022/10/13 07:16:47;;;;;;;32.53;23.17;;;;;;;;;;5054965;28;20217;-57
2022/10/13 07:19:13;;;;;;;39.40;22.98;;;;;;;;;;5054357;28;20244;-57
2022/10/13 07:21:39;;;;;;;33.25;20.75;;;;;;;;;;5055265;28;20212;-56
2022/10/13 07:24:06;;;;;;;30.30;20.73;;;;;;;;;;5054407;28;20221;-57
2022/10/13 07:26:33;;;;;;;23.30;16.52;;;;;;;;;;5053895;28;20213;-55
2022/10/13 07:29:01;;;;;;;28.52;17.17;;;;;;;;;;5055532;28;20274;-55
2022/10/13 07:31:27;;;;;;;28.55;16.80;;;;;;;;;;5055166;28;20547;-54
2022/10/13 07:33:53;;;;;;;23.88;16.48;;;;;;;;;;5055039;28;20220;-56
2022/10/13 07:36:20;;;;;;;26.10;15.93;;;;;;;;;;5054488;28;20221;-56
2022/10/13 07:38:46;;;;;;;24.70;16.70;;;;;;;;;;5055261;28;20213;-56
2022/10/13 07:41:12;;;;;;;27.13;16.80;;;;;;;;;;5055057;28;20648;-57
2022/10/13 07:43:39;;;;;;;24.88;16.50;;;;;;;;;;5055968;28;20595;-57
2022/10/13 07:46:07;;;;;;;19.08;15.07;;;;;;;;;;5054314;28;20216;-57
2022/10/13 07:48:34;;;;;;;22.20;15.95;;;;;;;;;;5054618;28;20212;-57
2022/10/13 07:51:02;;;;;;;21.17;15.50;;;;;;;;;;5055421;28;20539;-56
2022/10/13 07:53:29;;;;;;;28.45;16.85;;;;;;;;;;5055856;28;20221;-56
2022/10/13 07:55:59;;;;;;;25.00;14.27;;;;;;;;;;5054326;28;20212;-56
2022/10/13 07:58:25;;;;;;;21.85;14.63;;;;;;;;;;5053958;28;20233;-54
2022/10/13 08:00:55;;;;;;;20.70;14.57;;;;;;;;;;5054590;28;20213;-56
2022/10/13 08:03:23;;;;;;;22.25;15.60;;;;;;;;;;5054028;28;20213;-57
2022/10/13 08:05:49;;;;;;;19.60;14.95;;;;;;;;;;5054268;28;20410;-56
2022/10/13 08:08:15;;;;;;;25.23;15.13;;;;;;;;;;5054103;28;20221;-57
2022/10/13 08:10:42;;;;;;;26.85;15.70;;;;;;;;;;5054852;28;20224;-56
2022/10/13 08:13:09;;;;;;;21.20;15.00;;;;;;;;;;5054558;28;20463;-56
2022/10/13 08:15:39;;;;;;;25.05;14.52;;;;;;;;;;5053897;28;20217;-57
2022/10/13 08:18:05;;;;;;;23.77;15.60;;;;;;;;;;5053928;28;20213;-56
2022/10/13 08:20:34;;;;;;;23.50;14.52;;;;;;;;;;5054338;28;20220;-55
2022/10/13 08:23:00;;;;;;;21.80;13.88;;;;;;;;;;5054428;28;20489;-56
2022/10/13 08:25:27;;;;;;;18.30;12.73;;;;;;;;;;5053419;28;20212;-56
2022/10/13 08:27:53;;;;;;;20.40;13.55;;;;;;;;;;5052776;28;20209;-56
2022/10/13 08:30:19;;;;;;;18.52;13.65;;;;;;;;;;5054049;28;20220;-57
2022/10/13 08:32:46;;;;;;;16.90;12.05;;;;;;;;;;5053945;28;20300;-55
2022/10/13 08:35:12;;;;;;;27.55;16.98;;;;;;;;;;5054346;28;20227;-56
2022/10/13 08:37:40;;;;;;;22.70;14.27;;;;;;;;;;5050322;28;20235;-55
2022/10/13 08:40:07;;;;;;;14.77;12.07;;;;;;;;;;5051488;28;20220;-56
2022/10/13 08:42:33;;;;;;;16.63;12.27;;;;;;;;;;5051409;28;20262;-56
2022/10/13 08:45:01;;;;;;;18.33;11.95;;;;;;;;;;5052872;28;20401;-56
2022/10/13 08:47:33;;;;;;;18.10;12.18;;;;;;;;;;5052222;28;20552;-57
2022/10/13 08:50:01;;;;;;;17.50;12.07;;;;;;;;;;5053091;28;20209;-56
2022/10/13 08:52:29;;;;;;;17.63;11.55;;;;;;;;;;5045529;28;20217;-56
2022/10/13 08:54:57;;;;;;;20.02;11.57;;;;;;;;;;5047862;28;20217;-57
2022/10/13 08:57:23;;;;;;;14.65;10.48;;;;;;;;;;5051168;28;20248;-57
2022/10/13 08:59:51;;;;;;;18.92;11.60;;;;;;;;;;5053067;28;20212;-55
2022/10/13 09:02:22;;;;;;;23.55;11.20;;;;;;;;;;5048091;28;20205;-56
2022/10/13 09:04:50;;;;;;;13.07;9.73;;;;;;;;;;5052113;28;20513;-56
2022/10/13 09:07:19;;;;;;;20.05;10.02;;;;;;;;;;5049447;28;20229;-56
2022/10/13 09:09:49;;;;;;;17.27;10.50;;;;;;;;;;5054319;28;20219;-56
2022/10/13 09:12:20;;;;;;;17.17;10.50;;;;;;;;;;5047396;28;20228;-56
2022/10/13 09:14:56;;;;;;;20.17;10.45;;;;;;;;;;5047507;28;20221;-56
2022/10/13 09:17:25;;;;;;;19.02;11.77;;;;;;;;;;5054107;28;20247;-56
2022/10/13 09:19:57;;;;;;;20.27;10.85;;;;;;;;;;5057513;28;20201;-56
2022/10/13 09:22:24;;;;;;;16.10;11.30;;;;;;;;;;5056831;28;20209;-57
2022/10/13 09:25:04;;;;;;;13.05;10.80;;;;;;;;;;5057261;28;20213;-55
2022/10/13 09:27:41;;;;;;;16.13;11.27;;;;;;;;;;5048282;28;20532;-55
2022/10/13 09:30:24;;;;;;;18.42;11.75;;;;;;;;;;5054336;28;20781;-55
2022/10/13 09:32:50;;;;;;;16.77;10.85;;;;;;;;;;5056003;28;20240;-55
2022/10/13 09:35:20;;;;;;;14.57;11.05;;;;;;;;;;5055057;28;20312;-55
2022/10/13 09:37:50;;;;;;;21.13;11.40;;;;;;;;;;5052540;28;20209;-54
2022/10/13 09:40:20;;;;;;;18.65;10.85;;;;;;;;;;5057984;28;20470;-57
2022/10/13 09:42:51;;;;;;;19.50;10.70;;;;;;;;;;5057273;28;20216;-57
2022/10/13 09:45:20;;;;;;;22.25;11.07;;;;;;;;;;5056605;28;20213;-57
2022/10/13 09:47:50;;;;;;;19.02;10.45;;;;;;;;;;5056654;28;20205;-57
2022/10/13 09:50:17;;;;;;;15.40;11.05;;;;;;;;;;5056151;28;20209;-57
2022/10/13 09:52:44;;;;;;;20.55;10.48;;;;;;;;;;5056769;28;20232;-57
2022/10/13 09:55:26;;;;;;;11.65;9.48;;;;;;;;;;5056584;28;20220;-55
2022/10/13 09:57:55;;;;;;;16.90;11.10;;;;;;;;;;5054311;28;20225;-57
2022/10/13 10:00:23;;;;;;;17.83;10.13;;;;;;;;;;5056900;28;20220;-57
2022/10/13 10:02:51;;;;;;;14.45;9.30;;;;;;;;;;5056287;28;20208;-57
2022/10/13 10:05:21;;;;;;;16.02;9.88;;;;;;;;;;5056230;28;20532;-56
2022/10/13 10:07:47;;;;;;;14.15;9.38;;;;;;;;;;5048212;28;20225;-56
2022/10/13 10:10:22;;;;;;;18.23;9.85;;;;;;;;;;5055615;28;20512;-56
2022/10/13 10:12:49;;;;;;;13.85;9.63;;;;;;;;;;5056721;28;20235;-56
2022/10/13 10:15:20;;;;;;;12.65;9.40;;;;;;;;;;5056659;28;20223;-57
2022/10/13 10:17:48;;;;;;;18.77;9.57;;;;;;;;;;5056464;28;20343;-56
2022/10/13 10:20:26;;;;;;;15.55;9.55;;;;;;;;;;5056567;28;20220;-56
2022/10/13 10:22:56;;;;;;;16.33;9.65;;;;;;;;;;5056870;28;20208;-57
2022/10/13 10:25:28;;;;;;;16.63;9.18;;;;;;;;;;5056736;28;20213;-57
2022/10/13 10:28:02;;;;;;;13.77;8.73;;;;;;;;;;5056470;28;20288;-57
2022/10/13 10:30:30;;;;;;;18.63;9.82;;;;;;;;;;5056538;28;20213;-57
2022/10/13 10:33:00;;;;;;;17.13;9.48;;;;;;;;;;5056414;28;20240;-58
2022/10/13 10:35:36;;;;;;;13.85;9.07;;;;;;;;;;5056505;28;20511;-58
2022/10/13 10:38:06;;;;;;;14.38;8.75;;;;;;;;;;5055891;28;20212;-57
2022/10/13 10:40:36;;;;;;;14.85;9.05;;;;;;;;;;5056180;28;20232;-57
2022/10/13 10:43:21;;;;;;;9.75;8.45;;;;;;;;;;5042000;28;20209;-56
2022/10/13 10:45:48;;;;;;;13.48;8.93;;;;;;;;;;5055621;28;20223;-56
2022/10/13 10:48:18;;;;;;;12.40;8.60;;;;;;;;;;5056020;28;20271;-57
2022/10/13 10:50:45;;;;;;;11.88;8.65;;;;;;;;;;5051645;28;20474;-56
2022/10/13 10:53:15;;;;;;;12.35;8.70;;;;;;;;;;5050721;28;20221;-57
2022/10/13 10:55:46;;;;;;;16.77;9.18;;;;;;;;;;5050887;28;20217;-56
2022/10/13 10:58:19;;;;;;;17.73;9.55;;;;;;;;;;5053520;28;20451;-57
2022/10/13 11:00:49;;;;;;;13.45;8.20;;;;;;;;;;5048135;28;20219;-57
2022/10/13 11:03:22;;;;;;;10.63;7.97;;;;;;;;;;5053189;28;20220;-56
2022/10/13 11:06:02;;;;;;;15.57;8.63;;;;;;;;;;5051720;28;20244;-56
2022/10/13 11:08:29;;;;;;;15.48;9.35;;;;;;;;;;5053029;28;20559;-55
2022/10/13 11:11:10;;;;;;;14.73;8.85;;;;;;;;;;5053003;28;20515;-57
2022/10/13 11:13:49;;;;;;;11.30;8.00;;;;;;;;;;5040404;28;20551;-57
2022/10/13 11:16:30;;;;;;;13.93;7.65;;;;;;;;;;5047575;28;20223;-56
2022/10/13 11:19:04;;;;;;;14.30;8.05;;;;;;;;;;5050168;28;20209;-57
2022/10/13 11:21:49;;;;;;;15.43;7.85;;;;;;;;;;5053294;28;20283;-55
2022/10/13 11:24:30;;;;;;;8.90;7.28;;;;;;;;;;5053250;28;20425;-56
2022/10/13 11:27:16;;;;;;;13.10;6.93;;;;;;;;;;5052684;28;20205;-57
2022/10/13 11:29:53;;;;;;;15.07;8.02;;;;;;;;;;5052618;28;20209;-54
2022/10/13 11:32:41;;;;;;;14.40;8.13;;;;;;;;;;5052444;28;20228;-56
2022/10/13 11:35:19;;;;;;;12.70;7.10;;;;;;;;;;5050909;28;20213;-55
2022/10/13 11:37:49;;;;;;;17.90;8.57;;;;;;;;;;5052492;28;20213;-56
2022/10/13 11:40:30;;;;;;;10.65;7.13;;;;;;;;;;5053423;28;20215;-56
2022/10/13 11:43:26;;;;;;;16.15;7.05;;;;;;;;;;5053549;28;20524;-57
2022/10/13 11:46:09;;;;;;;13.75;7.32;;;;;;;;;;4991138;28;20560;-55
2022/10/13 11:48:53;;;;;;;14.25;7.70;;;;;;;;;;5043917;28;20251;-56
2022/10/13 11:51:28;;;;;;;14.90;7.90;;;;;;;;;;5052197;28;20528;-56
2022/10/13 11:53:59;;;;;;;14.45;7.95;;;;;;;;;;5053196;28;20425;-57
2022/10/13 11:56:32;;;;;;;13.77;7.65;;;;;;;;;;5051579;28;20219;-56
2022/10/13 11:58:59;;;;;;;11.60;6.90;;;;;;;;;;5051379;28;20225;-56
2022/10/13 12:01:25;;;;;;;13.77;7.10;;;;;;;;;;5054335;28;20232;-59
2022/10/13 12:03:51;;;;;;;11.10;6.78;;;;;;;;;;5054404;28;20212;-55
2022/10/13 12:06:31;;;;;;;7.18;6.40;;;;;;;;;;5054011;28;20431;-58
2022/10/13 12:08:58;;;;;;;13.40;6.10;;;;;;;;;;5055486;28;20213;-58
2022/10/13 12:11:25;;;;;;;12.88;5.95;;;;;;;;;;5054654;28;20228;-56
2022/10/13 12:13:52;;;;;;;10.55;6.30;;;;;;;;;;5054408;28;20420;-57
2022/10/13 12:16:19;;;;;;;11.18;5.95;;;;;;;;;;5054261;28;20540;-56
2022/10/13 12:18:45;;;;;;;13.57;6.30;;;;;;;;;;5054268;28;20541;-57
2022/10/13 12:21:12;;;;;;;8.85;6.13;;;;;;;;;;5054414;28;20547;-56
2022/10/13 12:23:40;;;;;;;12.10;5.75;;;;;;;;;;5054447;28;20643;-57
2022/10/13 12:26:06;;;;;;;8.20;5.70;;;;;;;;;;5053865;28;20213;-57
2022/10/13 12:28:44;;;;;;;10.20;6.03;;;;;;;;;;5054302;28;20216;-57
2022/10/13 12:31:17;;;;;;;6.78;5.53;;;;;;;;;;5053985;28;20221;-58
2022/10/13 12:33:43;;;;;;;8.05;6.10;;;;;;;;;;5053507;28;20236;-57
2022/10/13 12:36:14;;;;;;;13.48;5.97;;;;;;;;;;5053887;28;20284;-56
2022/10/13 12:38:45;;;;;;;6.20;5.63;;;;;;;;;;5054252;28;20440;-57
2022/10/13 12:41:12;;;;;;;14.45;5.90;;;;;;;;;;5054910;28;20216;-57
2022/10/13 12:43:38;;;;;;;10.23;5.55;;;;;;;;;;5054581;28;20209;-58
2022/10/13 12:46:08;;;;;;;7.35;5.28;;;;;;;;;;5054637;28;20224;-55
2022/10/13 12:48:35;;;;;;;9.38;5.30;;;;;;;;;;5053784;28;20259;-56
2022/10/13 12:51:10;;;;;;;10.27;5.40;;;;;;;;;;5054926;28;20243;-57
2022/10/13 12:53:37;;;;;;;9.15;5.43;;;;;;;;;;5056788;28;20434;-57
2022/10/13 12:56:05;;;;;;;8.57;5.68;;;;;;;;;;5058131;28;20244;-56
2022/10/13 12:58:33;;;;;;;8.68;5.47;;;;;;;;;;5057779;28;20256;-57
2022/10/13 13:01:17;;;;;;;6.25;5.53;;;;;;;;;;5058235;28;20247;-57
2022/10/13 13:03:44;;;;;;;8.40;5.55;;;;;;;;;;5058111;28;20235;-57
2022/10/13 13:06:21;;;;;;;9.32;6.07;;;;;;;;;;5058242;28;20287;-56
2022/10/13 13:08:47;;;;;;;10.23;5.97;;;;;;;;;;5057772;28;20217;-57
2022/10/13 13:11:21;;;;;;;10.23;7.00;;;;;;;;;;5058574;28;20213;-56
2022/10/13 13:13:48;;;;;;;10.07;7.72;;;;;;;;;;5058562;28;20295;-58
2022/10/13 13:16:15;;;;;;;13.32;8.63;;;;;;;;;;5058294;28;20295;-56
2022/10/13 13:18:42;;;;;;;9.00;7.18;;;;;;;;;;5061960;28;20205;-58
2022/10/13 13:21:11;;;;;;;11.05;7.53;;;;;;;;;;5061014;28;20212;-57
2022/10/13 13:23:37;;;;;;;13.27;9.48;;;;;;;;;;5061078;28;20201;-56
2022/10/13 13:26:06;;;;;;;11.70;7.78;;;;;;;;;;5060886;28;20543;-57
2022/10/13 13:28:34;;;;;;;15.43;7.68;;;;;;;;;;5061313;28;20205;-55
2022/10/13 13:31:01;;;;;;;10.50;7.47;;;;;;;;;;5060871;28;20543;-55
2022/10/13 13:33:27;;;;;;;13.02;6.28;;;;;;;;;;5061045;28;20239;-56
2022/10/13 13:35:54;;;;;;;7.28;6.47;;;;;;;;;;5061031;28;20216;-57
2022/10/13 13:38:20;;;;;;;12.32;6.97;;;;;;;;;;5060786;28;20209;-56
2022/10/13 13:40:46;;;;;;;16.83;7.43;;;;;;;;;;5060996;28;20411;-56
2022/10/13 13:43:13;;;;;;;12.20;7.05;;;;;;;;;;5060772;28;20229;-56
2022/10/13 13:45:40;;;;;;;10.18;6.40;;;;;;;;;;5060855;28;20208;-56
2022/10/13 13:48:06;;;;;;;8.50;6.63;;;;;;;;;;5060137;28;20209;-55
2022/10/13 13:50:34;;;;;;;7.72;5.88;;;;;;;;;;5060846;28;20211;-59
2022/10/13 13:53:00;;;;;;;9.43;5.82;;;;;;;;;;5061837;28;20514;-59
2022/10/13 13:55:28;;;;;;;12.68;6.50;;;;;;;;;;5061197;28;20232;-59
2022/10/13 13:57:54;;;;;;;14.85;6.93;;;;;;;;;;5061144;28;20271;-57
2022/10/13 14:00:21;;;;;;;11.27;7.03;;;;;;;;;;5061601;28;20209;-59
2022/10/13 14:02:49;;;;;;;11.32;6.80;;;;;;;;;;5061268;28;20217;-59
2022/10/13 14:05:15;;;;;;;11.52;6.88;;;;;;;;;;5060632;28;20209;-58
2022/10/13 14:07:42;;;;;;;15.90;6.97;;;;;;;;;;5060563;28;20259;-57
2022/10/13 14:10:09;;;;;;;12.55;6.38;;;;;;;;;;5057937;28;20546;-55
2022/10/13 14:12:35;;;;;;;16.63;6.57;;;;;;;;;;5058023;28;20276;-57
2022/10/13 14:15:02;;;;;;;10.55;5.60;;;;;;;;;;5056970;28;20612;-57
2022/10/13 14:17:28;;;;;;;16.38;6.97;;;;;;;;;;5057667;28;20219;-56
2022/10/13 14:19:56;;;;;;;7.72;6.20;;;;;;;;;;5057567;28;20213;-57
2022/10/13 14:22:22;;;;;;;10.93;5.75;;;;;;;;;;5057974;28;20441;-57
2022/10/13 14:24:49;;;;;;;12.57;6.15;;;;;;;;;;5056850;28;20217;-57
2022/10/13 14:27:15;;;;;;;14.13;6.78;;;;;;;;;;5056996;28;20205;-56
2022/10/13 14:29:41;;;;;;;8.35;5.75;;;;;;;;;;5056524;28;20574;-57